createdAt,value
2019-04-16T00:02:29.337Z,13.13
2019-04-16T00:05:14.184Z,11.37
2019-04-16T00:08:26.698Z,11.77
2019-04-16T00:11:13.583Z,11.70
2019-04-16T00:13:55.313Z,11.03
2019-04-16T00:16:32.774Z,12.17
2019-04-16T00:19:10.287Z,15.27
2019-04-16T00:22:03.562Z,15.20
2019-04-16T00:24:44.019Z,13.37
2019-04-16T00:27:21.532Z,10.93
2019-04-16T00:30:03.943Z,15.87
2019-04-16T00:32:40.982Z,12.93
2019-04-16T00:35:16.403Z,14.97
2019-04-16T00:37:53.577Z,19.37
2019-04-16T00:40:31.054Z,28.20
2019-04-16T00:43:08.566Z,37.37
2019-04-16T00:45:46.048Z,48.77
2019-04-16T00:48:23.575Z,57.97
2019-04-16T00:51:01.083Z,50.60
2019-04-16T00:53:39.203Z,52.07
2019-04-16T00:56:16.815Z,29.00
2019-04-16T00:58:53.569Z,19.10
2019-04-16T01:01:31.042Z,14.30
2019-04-16T01:04:09.045Z,13.43
2019-04-16T01:06:46.046Z,13.70
2019-04-16T01:09:23.546Z,14.60
2019-04-16T01:12:01.045Z,14.70
2019-04-16T01:14:38.555Z,15.57
2019-04-16T01:17:16.025Z,17.23
2019-04-16T01:19:53.519Z,15.43
2019-04-16T01:22:31.005Z,14.07
2019-04-16T01:25:08.623Z,15.97
2019-04-16T01:27:49.320Z,15.10
2019-04-16T01:30:37.222Z,15.03
2019-04-16T01:33:19.382Z,13.77
2019-04-16T01:36:15.471Z,12.47
2019-04-16T01:39:13.406Z,16.53
2019-04-16T01:41:33.962Z,12.67
2019-04-16T01:44:11.468Z,10.87
2019-04-16T01:46:48.940Z,14.87
2019-04-16T01:49:26.428Z,12.00
2019-04-16T01:52:03.914Z,13.53
2019-04-16T01:54:41.465Z,15.20
2019-04-16T01:57:18.928Z,16.27
2019-04-16T01:59:56.447Z,12.47
2019-04-16T02:02:33.910Z,13.93
2019-04-16T02:05:11.691Z,13.47
2019-04-16T02:07:48.913Z,13.93
2019-04-16T02:10:26.412Z,13.53
2019-04-16T02:13:03.887Z,16.90
2019-04-16T02:15:41.391Z,18.03
2019-04-16T02:18:18.749Z,19.90
2019-04-16T02:20:56.252Z,15.17
2019-04-16T02:23:33.733Z,16.93
2019-04-16T02:26:11.233Z,13.23
2019-04-16T02:28:48.792Z,12.90
2019-04-16T02:31:26.325Z,15.13
2019-04-16T02:34:03.813Z,18.70
2019-04-16T02:36:41.327Z,21.47
2019-04-16T02:39:25.443Z,17.20
2019-04-16T02:41:58.177Z,19.53
2019-04-16T02:44:33.782Z,16.10
2019-04-16T02:47:11.376Z,20.33
2019-04-16T02:49:48.765Z,17.90
2019-04-16T02:52:36.687Z,17.63
2019-04-16T02:55:23.295Z,18.03
2019-04-16T02:58:04.749Z,18.47
2019-04-16T03:00:55.677Z,15.47
2019-04-16T03:03:56.239Z,19.33
2019-04-16T03:06:32.580Z,16.53
2019-04-16T03:09:10.251Z,15.07
2019-04-16T03:11:48.939Z,18.00
2019-04-16T03:14:29.697Z,15.07
2019-04-16T03:17:30.368Z,16.47
2019-04-16T03:20:08.883Z,15.60
2019-04-16T03:22:46.437Z,15.17
2019-04-16T03:25:23.908Z,16.13
2019-04-16T03:28:01.422Z,15.53
2019-04-16T03:30:42.404Z,16.70
2019-04-16T03:33:16.597Z,16.00
2019-04-16T03:35:57.593Z,15.60
2019-04-16T03:38:31.365Z,13.23
2019-04-16T03:41:08.874Z,15.33
2019-04-16T03:43:46.368Z,20.60
2019-04-16T03:46:23.867Z,16.57
2019-04-16T03:49:01.353Z,15.60
2019-04-16T03:51:38.861Z,18.10
2019-04-16T03:54:18.815Z,16.13
2019-04-16T03:56:53.864Z,16.03
2019-04-16T03:59:31.371Z,16.17
2019-04-16T04:02:08.874Z,14.30
2019-04-16T04:04:46.353Z,15.20
2019-04-16T04:07:23.879Z,17.53
2019-04-16T04:10:02.065Z,16.27
2019-04-16T04:12:39.571Z,15.63
2019-04-16T04:15:17.226Z,16.60
2019-04-16T04:17:54.549Z,18.63
2019-04-16T04:20:32.040Z,14.57
2019-04-16T04:23:09.565Z,15.70
2019-04-16T04:25:47.065Z,15.93
2019-04-16T04:28:24.591Z,15.43
2019-04-16T04:31:02.146Z,16.33
2019-04-16T04:33:42.599Z,15.13
2019-04-16T04:36:18.944Z,17.03
2019-04-16T04:38:54.678Z,15.90
2019-04-16T04:41:32.154Z,19.17
2019-04-16T04:44:09.854Z,15.00
2019-04-16T04:46:47.161Z,17.60
2019-04-16T04:49:29.929Z,17.50
2019-04-16T04:52:02.198Z,17.10
2019-04-16T04:54:39.735Z,17.43
2019-04-16T04:57:17.242Z,20.60
2019-04-16T04:59:54.800Z,22.80
2019-04-16T05:02:32.273Z,21.77
2019-04-16T05:05:25.592Z,19.20
2019-04-16T05:08:01.238Z,19.03
2019-04-16T05:10:42.773Z,18.07
2019-04-16T05:13:16.225Z,24.33
2019-04-16T05:15:53.712Z,21.03
2019-04-16T05:18:31.273Z,22.63
2019-04-16T05:21:08.743Z,21.00
2019-04-16T05:23:46.262Z,24.77
2019-04-16T05:26:23.761Z,23.03
2019-04-16T05:29:16.047Z,20.83
2019-04-16T05:31:49.203Z,21.60
2019-04-16T05:34:26.720Z,22.63
2019-04-16T05:37:04.244Z,20.37
2019-04-16T05:39:41.771Z,19.73
2019-04-16T05:42:19.381Z,18.37
2019-04-16T05:44:56.862Z,20.20
2019-04-16T05:47:34.354Z,21.17
2019-04-16T05:50:11.819Z,19.67
2019-04-16T05:52:49.309Z,20.57
2019-04-16T05:55:34.587Z,23.10
2019-04-16T05:58:12.127Z,26.83
2019-04-16T06:01:10.484Z,18.43
2019-04-16T06:03:45.742Z,26.40
2019-04-16T06:06:23.255Z,19.97
2019-04-16T06:09:00.770Z,22.43
2019-04-16T06:11:38.256Z,18.93
2019-04-16T06:14:21.022Z,19.77
2019-04-16T06:17:17.109Z,19.80
2019-04-16T06:20:00.871Z,21.67
2019-04-16T06:23:01.001Z,21.50
2019-04-16T06:25:56.358Z,24.03
2019-04-16T06:28:56.348Z,20.10
2019-04-16T06:31:44.789Z,22.93
2019-04-16T06:34:43.134Z,22.63
2019-04-16T06:37:27.468Z,22.03
2019-04-16T06:40:11.390Z,20.87
2019-04-16T06:42:56.749Z,21.27
2019-04-16T06:45:42.607Z,19.47
2019-04-16T06:48:25.700Z,18.43
2019-04-16T06:51:22.315Z,19.63
2019-04-16T06:54:18.436Z,23.33
2019-04-16T06:57:14.776Z,19.10
2019-04-16T07:00:20.805Z,21.77
2019-04-16T07:03:16.912Z,19.77
2019-04-16T07:06:19.405Z,23.53
2019-04-16T07:09:12.418Z,19.37
2019-04-16T07:11:54.667Z,20.07
2019-04-16T07:14:28.433Z,20.93
2019-04-16T07:17:05.953Z,20.83
2019-04-16T07:19:43.429Z,25.63
2019-04-16T07:22:22.031Z,20.07
2019-04-16T07:25:03.925Z,20.70
2019-04-16T07:27:44.735Z,21.87
2019-04-16T07:30:40.615Z,17.60
2019-04-16T07:33:39.184Z,21.93
2019-04-16T07:36:30.528Z,22.33
2019-04-16T07:39:28.811Z,20.33
2019-04-16T07:42:12.086Z,22.37
2019-04-16T07:44:57.894Z,24.43
2019-04-16T07:48:13.511Z,20.80
2019-04-16T07:51:19.699Z,18.37
2019-04-16T07:54:18.640Z,18.87
2019-04-16T07:56:54.315Z,24.67
2019-04-16T07:59:32.846Z,20.10
2019-04-16T08:02:09.342Z,18.50
2019-04-16T08:04:46.813Z,18.47
2019-04-16T08:07:24.311Z,21.20
2019-04-16T08:10:02.957Z,21.47
2019-04-16T08:12:42.071Z,20.20
2019-04-16T08:15:16.764Z,16.80
2019-04-16T08:17:54.273Z,18.17
2019-04-16T08:20:31.737Z,20.53
2019-04-16T08:23:27.843Z,19.63
2019-04-16T08:26:11.344Z,17.10
2019-04-16T08:28:43.539Z,18.47
2019-04-16T08:31:24.098Z,18.20
2019-04-16T08:34:01.601Z,17.90
2019-04-16T08:36:39.097Z,20.13
2019-04-16T08:39:17.015Z,17.33
2019-04-16T08:41:54.515Z,19.37
2019-04-16T08:44:35.304Z,19.30
2019-04-16T08:47:12.118Z,17.50
2019-04-16T08:49:47.018Z,19.57
2019-04-16T08:52:24.512Z,19.87
2019-04-16T08:55:02.010Z,18.83
2019-04-16T08:57:39.493Z,21.17
2019-04-16T09:00:16.973Z,17.97
2019-04-16T09:02:57.615Z,18.83
2019-04-16T09:05:31.968Z,20.33
2019-04-16T09:08:21.980Z,15.73
2019-04-16T09:10:56.842Z,16.97
2019-04-16T09:13:40.911Z,21.60
2019-04-16T09:16:15.006Z,17.27
2019-04-16T09:19:00.578Z,17.43
2019-04-16T09:21:43.422Z,14.47
2019-04-16T09:24:21.666Z,19.83
2019-04-16T09:27:20.920Z,17.37
2019-04-16T09:30:17.973Z,15.03
2019-04-16T09:33:00.958Z,20.67
2019-04-16T09:35:55.238Z,19.13
2019-04-16T09:38:46.424Z,16.37
2019-04-16T09:41:28.572Z,19.60
2019-04-16T09:44:06.070Z,17.17
2019-04-16T09:46:51.096Z,18.47
2019-04-16T09:49:21.093Z,19.90
2019-04-16T09:51:58.571Z,18.10
2019-04-16T09:54:36.055Z,17.00
2019-04-16T09:57:13.707Z,18.67
2019-04-16T10:00:00.640Z,16.97
2019-04-16T10:02:38.823Z,19.70
2019-04-16T10:05:16.324Z,17.13
2019-04-16T10:07:56.847Z,19.13
2019-04-16T10:10:31.317Z,17.43
2019-04-16T10:13:08.771Z,17.90
2019-04-16T10:15:46.262Z,21.63
2019-04-16T10:18:23.748Z,21.43
2019-04-16T10:21:01.268Z,20.60
2019-04-16T10:23:57.371Z,17.40
2019-04-16T10:26:34.868Z,19.93
2019-04-16T10:29:15.644Z,23.00
2019-04-16T10:31:53.422Z,20.53
2019-04-16T10:34:30.900Z,16.93
2019-04-16T10:37:08.494Z,21.60
2019-04-16T10:40:05.039Z,16.70
2019-04-16T10:43:00.746Z,18.20
2019-04-16T10:46:03.912Z,19.60
2019-04-16T10:49:00.052Z,19.83
2019-04-16T10:52:05.982Z,17.97
2019-04-16T10:55:09.392Z,15.93
2019-04-16T10:58:01.850Z,21.47
2019-04-16T11:01:00.877Z,23.10
2019-04-16T11:03:47.433Z,23.03
2019-04-16T11:06:37.003Z,18.80
2019-04-16T11:09:14.484Z,28.17
2019-04-16T11:11:51.998Z,29.07
2019-04-16T11:14:29.493Z,33.23
2019-04-16T11:17:06.976Z,24.17
2019-04-16T11:19:44.497Z,18.03
2019-04-16T11:22:21.983Z,20.23
2019-04-16T11:24:59.467Z,18.43
2019-04-16T11:27:36.978Z,18.13
2019-04-16T11:30:23.533Z,16.33
2019-04-16T11:33:01.480Z,19.90
2019-04-16T11:35:38.960Z,16.90
2019-04-16T11:38:17.635Z,23.03
2019-04-16T11:40:53.903Z,21.00
2019-04-16T11:43:31.417Z,18.30
2019-04-16T11:46:08.897Z,17.67
2019-04-16T11:48:50.009Z,15.83
2019-04-16T11:51:23.877Z,16.90
2019-04-16T11:54:01.476Z,18.50
2019-04-16T11:56:38.928Z,18.10
2019-04-16T11:59:16.482Z,17.57
2019-04-16T12:02:04.711Z,17.43
2019-04-16T12:05:07.287Z,20.33
2019-04-16T12:08:03.372Z,17.93
2019-04-16T12:11:18.667Z,20.83
2019-04-16T12:14:28.648Z,16.27
2019-04-16T12:16:59.869Z,18.27
2019-04-16T12:20:09.201Z,17.83
2019-04-16T12:23:08.544Z,17.83
2019-04-16T12:26:04.677Z,17.37
2019-04-16T12:29:00.893Z,19.23
2019-04-16T12:31:56.709Z,17.87
2019-04-16T12:34:52.849Z,18.37
2019-04-16T12:37:38.342Z,18.97
2019-04-16T12:40:34.397Z,17.00
2019-04-16T12:43:25.909Z,18.23
2019-04-16T12:46:22.026Z,16.97
2019-04-16T12:49:18.103Z,16.52
2019-04-16T12:52:16.932Z,18.77
2019-04-16T12:55:13.227Z,17.83
2019-04-16T12:58:20.217Z,17.13
2019-04-16T13:01:19.721Z,17.67
2019-04-16T13:04:02.433Z,15.13
2019-04-16T13:06:42.772Z,24.60
2019-04-16T13:09:38.909Z,14.90
2019-04-16T13:12:35.039Z,18.93
2019-04-16T13:15:26.162Z,15.37
2019-04-16T13:18:11.410Z,17.60
2019-04-16T13:21:03.945Z,18.87
2019-04-16T13:23:51.315Z,16.70
2019-04-16T13:26:42.442Z,15.03
2019-04-16T13:29:22.689Z,14.43
2019-04-16T13:32:00.161Z,15.73
2019-04-16T13:34:37.623Z,15.80
2019-04-16T13:37:15.150Z,14.43
2019-04-16T13:40:00.444Z,15.73
2019-04-16T13:42:37.090Z,16.80
2019-04-16T13:45:33.013Z,15.47
2019-04-16T13:48:27.281Z,14.65
2019-04-16T13:51:04.795Z,18.00
2019-04-16T13:53:54.233Z,16.80
2019-04-16T13:56:35.950Z,14.97
2019-04-16T13:59:30.240Z,16.50
2019-04-16T14:02:11.209Z,14.63
2019-04-16T14:04:48.689Z,15.15
2019-04-16T14:07:26.214Z,14.47
2019-04-16T14:10:03.709Z,14.90
2019-04-16T14:12:42.683Z,17.17
2019-04-16T14:15:31.063Z,21.00
2019-04-16T14:17:59.075Z,18.07
2019-04-16T14:20:33.669Z,27.27
2019-04-16T14:23:11.375Z,16.67
2019-04-16T14:25:48.676Z,16.30
2019-04-16T14:28:26.177Z,16.37
2019-04-16T14:31:03.860Z,14.90
2019-04-16T14:34:06.453Z,16.87
2019-04-16T14:36:43.975Z,15.47
2019-04-16T14:39:31.177Z,14.60
2019-04-16T14:42:08.704Z,20.77
2019-04-16T14:44:49.865Z,22.30
2019-04-16T14:47:29.878Z,19.27
2019-04-16T14:50:04.860Z,19.65
2019-04-16T14:52:42.656Z,19.57
2019-04-16T14:55:32.617Z,14.55
2019-04-16T14:58:37.573Z,21.62
2019-04-16T15:01:36.881Z,14.85
2019-04-16T15:04:43.243Z,15.10
2019-04-16T15:07:54.849Z,15.57
2019-04-16T15:11:04.065Z,13.77
2019-04-16T15:14:06.107Z,17.23
2019-04-16T15:16:50.787Z,14.13
2019-04-16T15:19:36.050Z,15.85
2019-04-16T15:22:45.455Z,16.27
2019-04-16T15:25:35.485Z,14.80
2019-04-16T15:28:21.090Z,15.77
2019-04-16T15:31:06.850Z,15.33
2019-04-16T15:33:50.708Z,15.90
2019-04-16T15:36:35.149Z,15.83
2019-04-16T15:39:16.131Z,16.50
2019-04-16T15:42:22.495Z,15.57
2019-04-16T15:45:21.144Z,14.85
2019-04-16T15:48:23.909Z,13.88
2019-04-16T15:51:18.749Z,15.23
2019-04-16T15:54:14.903Z,17.53
2019-04-16T15:57:11.017Z,16.27
2019-04-16T16:00:07.169Z,20.00
2019-04-16T16:03:03.491Z,19.23
2019-04-16T16:05:49.247Z,14.47
2019-04-16T16:08:41.029Z,14.40
2019-04-16T16:11:21.023Z,17.33
2019-04-16T16:14:00.369Z,17.00
2019-04-16T16:16:42.065Z,12.70
2019-04-16T16:19:13.437Z,13.90
2019-04-16T16:21:50.948Z,16.23
2019-04-16T16:24:28.473Z,16.02
2019-04-16T16:27:06.009Z,16.53
2019-04-16T16:29:43.489Z,18.52
2019-04-16T16:32:21.013Z,13.95
2019-04-16T16:34:58.511Z,17.20
2019-04-16T16:37:36.925Z,14.03
2019-04-16T16:40:15.290Z,14.43
2019-04-16T16:42:50.999Z,15.20
2019-04-16T16:45:43.899Z,15.43
2019-04-16T16:48:22.082Z,14.07
2019-04-16T16:50:58.956Z,16.60
2019-04-16T16:53:45.998Z,16.47
2019-04-16T16:56:42.396Z,13.10
2019-04-16T16:59:42.865Z,18.70
2019-04-16T17:02:45.092Z,20.23
2019-04-16T17:05:32.047Z,14.87
2019-04-16T17:08:09.532Z,15.50
2019-04-16T17:10:47.189Z,18.03
2019-04-16T17:13:24.621Z,16.37
2019-04-16T17:16:02.127Z,17.47
2019-04-16T17:18:39.650Z,15.73
2019-04-16T17:21:17.177Z,15.73
2019-04-16T17:23:54.687Z,13.83
2019-04-16T17:26:32.192Z,15.17
2019-04-16T17:29:09.713Z,17.00
2019-04-16T17:31:47.359Z,17.40
2019-04-16T17:34:24.847Z,17.47
2019-04-16T17:37:02.352Z,15.20
2019-04-16T17:39:43.551Z,14.30
2019-04-16T17:42:22.223Z,14.03
2019-04-16T17:45:18.293Z,18.03
2019-04-16T17:48:02.795Z,16.10
2019-04-16T17:51:04.798Z,16.73
2019-04-16T17:53:59.892Z,17.90
2019-04-16T17:57:08.877Z,16.03
2019-04-16T17:59:53.816Z,14.43
2019-04-16T18:02:49.977Z,21.73
2019-04-16T18:05:35.121Z,25.70
2019-04-16T18:08:25.001Z,19.80
2019-04-16T18:11:20.653Z,28.30
2019-04-16T18:14:10.753Z,25.40
2019-04-16T18:17:02.201Z,18.47
2019-04-16T18:19:58.784Z,17.07
2019-04-16T18:22:58.727Z,16.20
2019-04-16T18:25:57.947Z,18.20
2019-04-16T18:28:39.935Z,16.27
2019-04-16T18:31:36.189Z,15.40
2019-04-16T18:34:35.393Z,17.30
2019-04-16T18:37:48.749Z,17.67
2019-04-16T18:40:47.410Z,14.87
2019-04-16T18:43:46.392Z,14.23
2019-04-16T18:46:49.225Z,16.73
2019-04-16T18:49:26.750Z,15.37
2019-04-16T18:52:05.352Z,14.60
2019-04-16T18:54:41.954Z,15.93
2019-04-16T18:57:19.757Z,14.93
2019-04-16T18:59:57.392Z,16.97
2019-04-16T19:02:35.131Z,16.87
2019-04-16T19:05:12.732Z,13.77
2019-04-16T19:07:50.421Z,15.43
2019-04-16T19:10:28.057Z,14.07
2019-04-16T19:13:10.046Z,17.77
2019-04-16T19:15:43.445Z,15.37
2019-04-16T19:18:21.046Z,13.33
2019-04-16T19:20:58.573Z,15.03
2019-04-16T19:23:36.164Z,15.60
2019-04-16T19:26:13.753Z,13.63
2019-04-16T19:28:51.448Z,13.27
2019-04-16T19:31:29.102Z,17.33
2019-04-16T19:34:10.167Z,15.63
2019-04-16T19:36:44.367Z,19.00
2019-04-16T19:39:21.936Z,17.03
2019-04-16T19:41:59.560Z,17.60
2019-04-16T19:44:39.972Z,15.20
2019-04-16T19:47:14.680Z,14.93
2019-04-16T19:49:52.158Z,18.43
2019-04-16T19:52:29.669Z,13.53
2019-04-16T19:55:12.261Z,14.17
2019-04-16T19:57:45.958Z,12.83
2019-04-16T20:00:23.476Z,13.10
2019-04-16T20:03:00.985Z,18.50
2019-04-16T20:05:38.483Z,18.27
2019-04-16T20:08:15.995Z,18.40
2019-04-16T20:10:53.618Z,20.83
2019-04-16T20:13:30.997Z,18.60
2019-04-16T20:16:08.478Z,20.43
2019-04-16T20:18:51.274Z,21.63
2019-04-16T20:21:23.704Z,15.90
2019-04-16T20:24:01.237Z,15.77
2019-04-16T20:26:38.724Z,18.43
2019-04-16T20:29:16.236Z,15.30
2019-04-16T20:31:53.717Z,16.47
2019-04-16T20:34:31.216Z,15.97
2019-04-16T20:37:08.733Z,16.30
2019-04-16T20:39:46.217Z,15.17
2019-04-16T20:42:23.721Z,15.53
2019-04-16T20:45:01.202Z,18.70
2019-04-16T20:47:39.981Z,18.93
2019-04-16T20:50:20.569Z,19.83
2019-04-16T20:52:53.761Z,20.87
2019-04-16T20:55:31.229Z,21.80
2019-04-16T20:58:08.725Z,21.47
2019-04-16T21:00:47.669Z,24.00
2019-04-16T21:03:25.183Z,16.13
2019-04-16T21:06:07.177Z,16.23
2019-04-16T21:08:40.184Z,15.47
2019-04-16T21:11:17.704Z,15.80
2019-04-16T21:13:55.205Z,21.83
2019-04-16T21:16:33.752Z,18.03
2019-04-16T21:19:22.113Z,19.97
2019-04-16T21:21:47.673Z,17.30
2019-04-16T21:24:25.170Z,17.73
2019-04-16T21:27:02.990Z,16.47
2019-04-16T21:29:40.153Z,17.43
2019-04-16T21:32:37.051Z,18.50
2019-04-16T21:35:21.888Z,15.13
2019-04-16T21:38:17.453Z,17.17
2019-04-16T21:40:56.325Z,16.90
2019-04-16T21:43:32.498Z,16.10
2019-04-16T21:46:09.920Z,19.60
2019-04-16T21:48:47.420Z,19.77
2019-04-16T21:51:24.898Z,17.37
2019-04-16T21:54:02.416Z,18.23
2019-04-16T21:56:40.365Z,15.93
2019-04-16T21:59:21.117Z,15.73
2019-04-16T22:01:55.133Z,18.10
2019-04-16T22:04:32.416Z,15.57
2019-04-16T22:07:09.902Z,16.70
2019-04-16T22:09:47.431Z,17.63
2019-04-16T22:12:24.914Z,17.20
2019-04-16T22:15:02.437Z,15.37
2019-04-16T22:17:39.942Z,18.20
2019-04-16T22:20:17.457Z,16.40
2019-04-16T22:22:54.933Z,16.83
2019-04-16T22:25:32.441Z,16.37
2019-04-16T22:28:12.791Z,15.13
2019-04-16T22:30:51.217Z,17.80
2019-04-16T22:33:24.908Z,18.50
2019-04-16T22:36:02.421Z,16.20
2019-04-16T22:38:40.118Z,14.40
2019-04-16T22:41:31.258Z,17.53
2019-04-16T22:44:27.369Z,15.50
2019-04-16T22:47:09.654Z,18.97
2019-04-16T22:49:47.152Z,20.33
2019-04-16T22:52:24.622Z,18.43
2019-04-16T22:55:02.547Z,15.40
2019-04-16T22:57:39.629Z,18.67
2019-04-16T23:00:26.353Z,15.07
2019-04-16T23:03:03.841Z,16.37
2019-04-16T23:05:41.342Z,15.87
2019-04-16T23:08:18.830Z,17.73
2019-04-16T23:10:56.406Z,17.53
2019-04-16T23:13:33.813Z,18.07
2019-04-16T23:16:11.322Z,21.53
2019-04-16T23:18:49.976Z,14.30
2019-04-16T23:21:26.302Z,16.97
2019-04-16T23:24:03.776Z,19.23
2019-04-16T23:26:41.277Z,19.00
2019-04-16T23:29:18.765Z,16.70
2019-04-16T23:31:57.298Z,14.00
2019-04-16T23:34:34.866Z,14.70
2019-04-16T23:37:12.093Z,18.13
2019-04-16T23:39:49.592Z,18.33
2019-04-16T23:42:27.084Z,19.57
2019-04-16T23:45:23.109Z,20.33
2019-04-16T23:48:19.226Z,16.87
2019-04-16T23:51:04.452Z,18.67
2019-04-16T23:53:55.659Z,20.03
2019-04-16T23:56:41.012Z,17.13
2019-04-16T23:59:40.118Z,18.70
